地図

経路データ

SID SEASON NUMBER BASIN SUBBASIN NAME ISO_TIME NATURE LAT LON WMO_WIND WMO_PRES WMO_AGENCY TRACK_TYPE DIST2LAND LANDFALL IFLAG USA_AGENCY USA_ATCF_ID USA_LAT USA_LON USA_RECORD USA_STATUS USA_WIND USA_PRES USA_SSHS USA_R34_NE USA_R34_SE USA_R34_SW USA_R34_NW USA_R50_NE USA_R50_SE USA_R50_SW USA_R50_NW USA_R64_NE USA_R64_SE USA_R64_SW USA_R64_NW USA_POCI USA_ROCI USA_RMW USA_EYE TOKYO_LAT TOKYO_LON TOKYO_GRADE TOKYO_WIND TOKYO_PRES TOKYO_R50_DIR TOKYO_R50_LONG TOKYO_R50_SHORT TOKYO_R30_DIR TOKYO_R30_LONG TOKYO_R30_SHORT TOKYO_LAND CMA_LAT CMA_LON CMA_CAT CMA_WIND CMA_PRES HKO_LAT HKO_LON HKO_CAT HKO_WIND HKO_PRES NEWDELHI_LAT NEWDELHI_LON NEWDELHI_GRADE NEWDELHI_WIND NEWDELHI_PRES NEWDELHI_CI NEWDELHI_DP NEWDELHI_POCI REUNION_LAT REUNION_LON REUNION_TYPE REUNION_WIND REUNION_PRES REUNION_TNUM REUNION_CI REUNION_RMW REUNION_R34_NE REUNION_R34_SE REUNION_R34_SW REUNION_R34_NW REUNION_R50_NE REUNION_R50_SE REUNION_R50_SW REUNION_R50_NW REUNION_R64_NE REUNION_R64_SE REUNION_R64_SW REUNION_R64_NW BOM_LAT BOM_LON BOM_TYPE BOM_WIND BOM_PRES BOM_TNUM BOM_CI BOM_RMW BOM_R34_NE BOM_R34_SE BOM_R34_SW BOM_R34_NW BOM_R50_NE BOM_R50_SE BOM_R50_SW BOM_R50_NW BOM_R64_NE BOM_R64_SE BOM_R64_SW BOM_R64_NW BOM_ROCI BOM_POCI BOM_EYE BOM_POS_METHOD BOM_PRES_METHOD NADI_LAT NADI_LON NADI_CAT NADI_WIND NADI_PRES WELLINGTON_LAT WELLINGTON_LON WELLINGTON_WIND WELLINGTON_PRES DS824_LAT DS824_LON DS824_STAGE DS824_WIND DS824_PRES TD9636_LAT TD9636_LON TD9636_STAGE TD9636_WIND TD9636_PRES TD9635_LAT TD9635_LON TD9635_WIND TD9635_PRES TD9635_ROCI NEUMANN_LAT NEUMANN_LON NEUMANN_CLASS NEUMANN_WIND NEUMANN_PRES MLC_LAT MLC_LON MLC_CLASS MLC_WIND MLC_PRES USA_GUST BOM_GUST BOM_GUST_PER REUNION_GUST REUNION_GUST_PER USA_SEAHGT USA_SEARAD_NE USA_SEARAD_SE USA_SEARAD_SW USA_SEARAD_NW STORM_SPEED STORM_DIR
1997236N10172 1997 71 WP MM NOT_NAMED 1997-08-24 00:00:00 NR 9.50000 172.000 spur-merge 2358 2358 O_____________ jtwc_wp WP191997 9.50000 172.000 15 -1 5 351
1997236N10172 1997 71 WP MM NOT_NAMED 1997-08-24 03:00:00 NR 9.76494 171.960 spur-merge 2387 2381 P_____________ WP191997 9.76494 171.960 15 -1 5 338
1997236N10172 1997 71 WP MM NOT_NAMED 1997-08-24 06:00:00 NR 10.0000 171.800 spur-merge 2395 2387 O_____________ jtwc_wp WP191997 10.0000 171.800 15 -1 7 309
1997236N10172 1997 71 WP MM NOT_NAMED 1997-08-24 09:00:00 NR 10.1801 171.445 spur-merge 2392 2380 P_____________ WP191997 10.1801 171.445 15 -1 8 291
1997236N10172 1997 71 WP MM NOT_NAMED 1997-08-24 12:00:00 NR 10.3000 171.000 spur-merge 2380 2364 O_____________ jtwc_wp WP191997 10.3000 171.000 15 -1 8 283
1997236N10172 1997 71 WP MM NOT_NAMED 1997-08-24 15:00:00 NR 10.3649 170.622 spur-merge 2369 2349 P_____________ WP191997 10.3649 170.622 15 -1 8 277
1997236N10172 1997 71 WP MM NOT_NAMED 1997-08-24 18:00:00 NR 10.4000 170.200 spur-merge 2349 2325 O_____________ jtwc_wp WP191997 10.4000 170.200 15 -1 9 275
1997236N10172 1997 71 WP MM NOT_NAMED 1997-08-24 21:00:00 NR 10.4499 169.695 spur-merge 2325 2308 P_____________ WP191997 10.4499 169.695 15 -1 11 275
1997236N10172 1997 71 WP MM NOT_NAMED 1997-08-25 00:00:00 NR 10.5000 169.100 spur-merge 2308 2283 O_____________ jtwc_wp WP191997 10.5000 169.100 15 -1 12 275
1997236N10172 1997 71 WP MM NOT_NAMED 1997-08-25 03:00:00 NR 10.5499 168.430 spur-merge 2278 2261 P_____________ WP191997 10.5499 168.430 15 -1 14 274
1997236N10172 1997 71 WP MM NOT_NAMED 1997-08-25 06:00:00 NR 10.6000 167.700 spur-merge 2261 2236 O_____________ jtwc_wp WP191997 10.6000 167.700 15 -1 14 274
1997236N10172 1997 71 WP MM NOT_NAMED 1997-08-25 09:00:00 NR 10.6498 166.965 spur-merge 2236 2201 P_____________ WP191997 10.6498 166.965 15 -1 15 274
1997236N10172 1997 71 WP MM NOT_NAMED 1997-08-25 12:00:00 NR 10.7000 166.200 spur-merge 2201 2150 O_____________ jtwc_wp WP191997 10.7000 166.200 15 -1 15 274
1997236N10172 1997 71 WP MM NOT_NAMED 1997-08-25 15:00:00 NR 10.7499 165.400 spur-merge 2150 2102 P_____________ WP191997 10.7499 165.400 15 -1 16 274
1997236N10172 1997 71 WP MM NOT_NAMED 1997-08-25 18:00:00 NR 10.8000 164.600 spur-merge 2102 2055 O_____________ jtwc_wp WP191997 10.8000 164.600 15 -1 15 274
1997236N10172 1997 71 WP MM NOT_NAMED 1997-08-25 21:00:00 NR 10.8497 163.850 spur-merge 2048 2010 P_____________ WP191997 10.8497 163.850 15 -1 15 274
1997236N10172 1997 71 WP MM NOT_NAMED 1997-08-26 00:00:00 NR 10.9000 163.100 spur-merge 2010 1957 O_____________ jtwc_wp WP191997 10.9000 163.100 15 -1 15 273
1997236N10172 1997 71 WP MM NOT_NAMED 1997-08-26 03:00:00 NR 10.9424 162.300 spur-merge 1957 1916 P_____________ WP191997 10.9424 162.300 15 -1 16 274
1997236N10172 1997 71 WP MM NOT_NAMED 1997-08-26 06:00:00 NR 11.0000 161.500 spur-merge 1916 1884 O_____________ jtwc_wp WP191997 11.0000 161.500 15 -1 15 276
1997236N10172 1997 71 WP MM NOT_NAMED 1997-08-26 09:00:00 NR 11.0923 160.743 spur-merge 1879 1848 P_____________ WP191997 11.0923 160.743 17 -1 15 278
1997236N10172 1997 71 WP MM NOT_NAMED 1997-08-26 12:00:00 NR 11.2000 160.000 spur-merge 1848 1820 O_____________ jtwc_wp WP191997 11.2000 160.000 20 -1 15 278
1997236N10172 1997 71 WP MM NOT_NAMED 1997-08-26 15:00:00 NR 11.3073 159.258 spur-merge 1820 1789 P_____________ WP191997 11.3073 159.258 20 -1 15 278
1997236N10172 1997 71 WP MM NOT_NAMED 1997-08-26 18:00:00 NR 11.4000 158.500 spur-merge 1789 1754 O_____________ jtwc_wp WP191997 11.4000 158.500 20 -1 15 276
1997236N10172 1997 71 WP MM NOT_NAMED 1997-08-26 21:00:00 NR 11.4573 157.707 spur-merge 1760 1724 P_____________ WP191997 11.4573 157.707 20 -1 16 274
1997236N10172 1997 71 WP MM NOT_NAMED 1997-08-27 00:00:00 NR 11.5000 156.900 spur-merge 1724 1691 O_____________ jtwc_wp WP191997 11.5000 156.900 20 -1 16 273
1997236N10172 1997 71 WP MM NOT_NAMED 1997-08-27 03:00:00 NR 11.5498 156.092 spur-merge 1691 1674 P_____________ WP191997 11.5498 156.092 20 -1 16 274
1997236N10172 1997 71 WP MM NOT_NAMED 1997-08-27 06:00:00 NR 11.6000 155.300 spur-merge 1674 1653 O_____________ jtwc_wp WP191997 11.6000 155.300 20 -1 15 273
1997236N10172 1997 71 WP MM NOT_NAMED 1997-08-27 09:00:00 NR 11.6423 154.535 spur-merge 1651 1645 P_____________ WP191997 11.6423 154.535 20 -1 15 274
1997236N10172 1997 71 WP MM NOT_NAMED 1997-08-27 12:00:00 NR 11.7000 153.800 spur-merge 1645 1636 O_____________ jtwc_wp WP191997 11.7000 153.800 20 -1 14 276
1997236N10172 1997 71 WP MM NOT_NAMED 1997-08-27 15:00:00 NR 11.7922 153.100 spur-merge 1642 1638 P_____________ WP191997 11.7903 153.093 20 -1 14 278
1997236N10172 1997 71 WP MM NOT_NAMED 1997-08-27 18:00:00 NR 11.9000 152.400 spur-merge 1644 O_____________ jtwc_wp WP191997 11.9000 152.400 20 -1 14 279

デジタル台風データ・検索

IBTrACS Databaseについて

本データベースは、米国NOAAが公開する1842年以降の世界の熱帯低気圧のベストトラックデータアーカイブInternational Best Track Archive for Climate Stewardship (IBTrACS)を、ウェブで閲覧しやすい形式に変換したものです。

最終更新日:2021-12-03